createdAt,value
2019-05-13T00:01:14.409Z,3.23
2019-05-13T00:04:18.263Z,2.60
2019-05-13T00:07:23.942Z,2.40
2019-05-13T00:10:27.380Z,2.83
2019-05-13T00:13:31.062Z,2.47
2019-05-13T00:16:35.119Z,2.43
2019-05-13T00:19:38.893Z,2.47
2019-05-13T00:22:44.696Z,2.63
2019-05-13T00:25:48.003Z,2.60
2019-05-13T00:28:53.443Z,2.93
2019-05-13T00:31:57.440Z,2.60
2019-05-13T00:35:01.122Z,2.77
2019-05-13T00:38:04.811Z,2.50
2019-05-13T00:41:08.492Z,2.97
2019-05-13T00:44:14.122Z,2.73
2019-05-13T00:47:17.922Z,2.50
2019-05-13T00:50:23.948Z,2.20
2019-05-13T00:53:27.082Z,2.73
2019-05-13T00:56:31.394Z,3.00
2019-05-13T00:59:35.162Z,2.67
2019-05-13T01:02:39.116Z,2.73
2019-05-13T01:05:44.479Z,2.80
2019-05-13T01:08:48.482Z,2.33
2019-05-13T01:11:53.735Z,2.30
2019-05-13T01:14:57.926Z,3.03
2019-05-13T01:18:03.705Z,2.90
2019-05-13T01:21:07.138Z,2.90
2019-05-13T01:24:14.189Z,2.60
2019-05-13T01:27:16.818Z,2.80
2019-05-13T01:30:20.844Z,2.90
2019-05-13T01:33:24.530Z,2.83
2019-05-13T01:36:28.206Z,2.80
2019-05-13T01:39:31.894Z,3.20
2019-05-13T01:42:35.679Z,2.90
2019-05-13T01:45:39.389Z,2.50
2019-05-13T01:48:43.730Z,2.60
2019-05-13T01:51:47.512Z,2.50
2019-05-13T01:54:51.201Z,2.90
2019-05-13T01:57:54.881Z,2.87
2019-05-13T02:00:58.553Z,2.70
2019-05-13T02:04:03.950Z,2.40
2019-05-13T02:07:07.670Z,2.67
2019-05-13T02:10:14.402Z,1.80
2019-05-13T02:13:18.214Z,3.17
2019-05-13T02:16:24.254Z,3.73
2019-05-13T02:19:27.598Z,2.97
2019-05-13T02:22:33.510Z,2.90
2019-05-13T02:25:36.726Z,2.53
2019-05-13T02:28:40.458Z,2.83
2019-05-13T02:31:51.105Z,2.20
2019-05-13T02:34:53.046Z,2.67
2019-05-13T02:38:12.515Z,3.00
2019-05-13T02:41:02.876Z,3.50
2019-05-13T02:44:06.199Z,2.60
2019-05-13T02:47:12.293Z,2.77
2019-05-13T02:50:15.639Z,3.83
2019-05-13T02:53:19.308Z,2.50
2019-05-13T02:56:23.063Z,2.70
2019-05-13T02:59:26.726Z,3.63
2019-05-13T03:02:32.776Z,2.83
2019-05-13T03:05:35.849Z,3.10
2019-05-13T03:08:48.808Z,2.80
2019-05-13T03:11:45.184Z,2.67
2019-05-13T03:14:48.928Z,3.03
2019-05-13T03:18:05.675Z,2.83
2019-05-13T03:21:12.607Z,2.90
2019-05-13T03:24:14.757Z,3.03
2019-05-13T03:27:20.562Z,3.17
2019-05-13T03:30:26.091Z,2.73
2019-05-13T03:33:35.923Z,3.00
2019-05-13T03:36:38.416Z,3.20
2019-05-13T03:39:43.704Z,2.83
2019-05-13T03:42:49.130Z,3.67
2019-05-13T03:45:54.434Z,2.80
2019-05-13T03:49:02.536Z,2.83
2019-05-13T03:52:06.349Z,3.20
2019-05-13T03:55:13.103Z,2.90
2019-05-13T03:58:16.390Z,3.00
2019-05-13T04:01:22.397Z,3.33
2019-05-13T04:04:25.723Z,2.93
2019-05-13T04:07:32.434Z,2.50
2019-05-13T04:10:35.075Z,2.50
2019-05-13T04:13:38.767Z,2.60
2019-05-13T04:16:43.018Z,2.80
2019-05-13T04:19:46.775Z,3.23
2019-05-13T04:22:52.968Z,3.30
2019-05-13T04:25:55.976Z,3.03
2019-05-13T04:29:03.044Z,3.13
2019-05-13T04:32:05.447Z,2.87
2019-05-13T04:35:12.333Z,3.03
2019-05-13T04:38:15.359Z,2.70
2019-05-13T04:41:22.572Z,2.80
2019-05-13T04:44:24.589Z,2.90
2019-05-13T04:47:28.491Z,3.17
2019-05-13T04:50:33.075Z,2.90
2019-05-13T04:53:37.057Z,2.97
2019-05-13T04:56:42.177Z,3.00
2019-05-13T04:59:46.160Z,3.03
2019-05-13T05:03:08.104Z,2.27
2019-05-13T05:06:53.101Z,2.70
2019-05-13T05:10:26.525Z,2.57
2019-05-13T05:13:43.818Z,2.93
2019-05-13T05:17:32.770Z,2.47
2019-05-13T05:20:46.616Z,3.10
2019-05-13T05:24:05.800Z,2.90
2019-05-13T05:27:46.100Z,3.17
2019-05-13T05:31:16.905Z,3.07
2019-05-13T05:35:01.416Z,2.97
2019-05-13T05:38:38.204Z,2.40
2019-05-13T05:41:43.469Z,2.70
2019-05-13T05:44:51.691Z,2.97
2019-05-13T05:47:55.678Z,2.97
2019-05-13T05:51:02.105Z,3.03
2019-05-13T05:54:11.987Z,3.13
2019-05-13T05:57:14.068Z,2.63
2019-05-13T06:00:18.100Z,2.87
2019-05-13T06:03:24.233Z,3.43
2019-05-13T06:06:32.732Z,2.33
2019-05-13T06:09:35.103Z,3.10
2019-05-13T06:12:42.157Z,2.30
2019-05-13T06:15:45.132Z,2.70
2019-05-13T06:18:48.814Z,2.70
2019-05-13T06:21:52.958Z,2.10
2019-05-13T06:24:56.699Z,2.57
2019-05-13T06:28:01.842Z,3.07
2019-05-13T06:31:05.784Z,2.80
2019-05-13T06:34:12.434Z,2.47
2019-05-13T06:37:15.670Z,2.57
2019-05-13T06:40:21.442Z,3.07
2019-05-13T06:43:24.767Z,2.67
2019-05-13T06:46:28.453Z,3.33
2019-05-13T06:49:32.670Z,2.70
2019-05-13T06:52:36.406Z,2.63
2019-05-13T06:55:41.803Z,2.60
2019-05-13T06:58:45.635Z,2.17
2019-05-13T07:01:51.399Z,2.80
2019-05-13T07:04:55.047Z,3.10
2019-05-13T07:07:58.733Z,2.60
2019-05-13T07:11:17.273Z,2.47
2019-05-13T07:14:08.157Z,2.37
2019-05-13T07:17:12.500Z,2.20
2019-05-13T07:20:17.900Z,2.60
2019-05-13T07:23:22.437Z,2.33
2019-05-13T07:26:26.335Z,2.87
2019-05-13T07:29:32.200Z,2.30
2019-05-13T07:32:35.419Z,2.83
2019-05-13T07:35:44.500Z,2.57
2019-05-13T07:38:45.717Z,2.27
2019-05-13T07:41:51.917Z,2.60
2019-05-13T07:44:55.147Z,2.47
2019-05-13T07:48:01.263Z,2.40
2019-05-13T07:51:05.021Z,2.40
2019-05-13T07:54:11.240Z,1.80
2019-05-13T07:57:14.431Z,2.67
2019-05-13T08:00:18.785Z,2.60
2019-05-13T08:03:22.499Z,2.30
2019-05-13T08:06:26.299Z,2.10
2019-05-13T08:09:31.970Z,1.90
2019-05-13T08:12:35.464Z,2.30
2019-05-13T08:15:41.825Z,2.90
2019-05-13T08:18:44.925Z,1.90
2019-05-13T08:21:48.631Z,2.00
2019-05-13T08:24:54.393Z,2.13
2019-05-13T08:27:57.842Z,2.30
2019-05-13T08:31:02.182Z,2.13
2019-05-13T08:34:06.117Z,1.70
2019-05-13T08:37:11.379Z,1.67
2019-05-13T08:40:19.967Z,1.77
2019-05-13T08:43:22.623Z,1.80
2019-05-13T08:46:26.660Z,1.83
2019-05-13T08:49:32.590Z,2.13
2019-05-13T08:52:35.797Z,1.73
2019-05-13T08:55:39.491Z,1.50
2019-05-13T08:58:45.032Z,1.63
2019-05-13T09:01:48.758Z,1.67
2019-05-13T09:04:52.811Z,1.30
2019-05-13T09:07:56.581Z,1.57
2019-05-13T09:11:01.624Z,1.63
2019-05-13T09:14:05.817Z,1.43
2019-05-13T09:17:11.889Z,1.30
2019-05-13T09:20:15.247Z,1.60
2019-05-13T09:23:18.961Z,1.53
2019-05-13T09:26:22.770Z,1.27
2019-05-13T09:29:26.461Z,0.97
2019-05-13T09:32:31.814Z,1.20
2019-05-13T09:35:35.683Z,1.40
2019-05-13T09:38:41.811Z,1.30
2019-05-13T09:41:44.903Z,1.40
2019-05-13T09:44:48.623Z,1.13
2019-05-13T09:47:52.658Z,1.10
2019-05-13T09:50:56.320Z,0.90
2019-05-13T09:54:01.357Z,1.40
2019-05-13T09:57:05.206Z,1.23
2019-05-13T10:00:12.013Z,1.00
2019-05-13T10:03:15.522Z,1.07
2019-05-13T10:06:21.869Z,0.90
2019-05-13T10:09:24.757Z,0.73
2019-05-13T10:12:28.480Z,1.00
2019-05-13T10:15:32.767Z,0.93
2019-05-13T10:18:36.626Z,0.90
2019-05-13T10:21:42.074Z,0.87
2019-05-13T10:24:46.171Z,0.67
2019-05-13T10:27:50.060Z,0.77
2019-05-13T10:30:54.491Z,1.00
2019-05-13T10:33:59.028Z,0.93
2019-05-13T10:37:03.103Z,0.93
2019-05-13T10:40:07.164Z,1.00
2019-05-13T10:43:27.121Z,0.70
2019-05-13T10:46:16.494Z,1.00
2019-05-13T10:49:22.106Z,0.80
2019-05-13T10:52:25.741Z,0.90
2019-05-13T10:55:31.736Z,0.90
2019-05-13T10:58:35.863Z,0.80
2019-05-13T11:01:42.622Z,1.00
2019-05-13T11:04:45.429Z,0.87
2019-05-13T11:07:51.682Z,0.90
2019-05-13T11:10:55.331Z,0.82
2019-05-13T11:14:08.271Z,0.93
2019-05-13T11:17:05.090Z,1.25
2019-05-13T11:20:09.034Z,1.00
2019-05-13T11:23:12.823Z,0.90
2019-05-13T11:26:16.851Z,0.87
2019-05-13T11:29:23.074Z,1.20
2019-05-13T11:32:25.994Z,1.00
2019-05-13T11:35:31.961Z,1.00
2019-05-13T11:38:35.435Z,0.90
2019-05-13T11:41:42.461Z,0.90
2019-05-13T11:44:44.578Z,0.95
2019-05-13T11:47:48.288Z,1.07
2019-05-13T11:50:54.070Z,0.82
2019-05-13T11:53:57.805Z,0.85
2019-05-13T11:57:06.120Z,1.10
2019-05-13T12:00:12.885Z,1.20
2019-05-13T12:03:14.979Z,1.25
2019-05-13T12:06:22.897Z,1.30
2019-05-13T12:09:24.386Z,1.20
2019-05-13T12:12:33.663Z,1.30
2019-05-13T12:15:45.942Z,1.27
2019-05-13T12:18:43.403Z,1.07
2019-05-13T12:21:46.694Z,1.20
2019-05-13T12:24:51.556Z,1.20
2019-05-13T12:27:55.321Z,1.35
2019-05-13T12:31:02.979Z,1.25
2019-05-13T12:34:04.942Z,1.07
2019-05-13T12:37:08.993Z,1.00
2019-05-13T12:40:13.223Z,1.15
2019-05-13T12:43:16.936Z,1.12
2019-05-13T12:46:23.660Z,1.20
2019-05-13T12:52:32.553Z,1.42
2019-05-13T12:55:36.615Z,1.10
2019-05-13T12:58:40.311Z,1.00
2019-05-13T13:01:44.009Z,1.00
2019-05-13T13:05:10.960Z,1.50
2019-05-13T13:08:16.006Z,1.30
2019-05-13T13:10:58.603Z,1.50
2019-05-13T13:14:05.772Z,1.27
2019-05-13T13:17:07.717Z,1.30
2019-05-13T13:20:14.901Z,1.20
2019-05-13T13:23:17.091Z,1.30
2019-05-13T13:26:21.807Z,1.20
2019-05-13T13:29:25.741Z,1.47
2019-05-13T13:32:32.218Z,1.17
2019-05-13T13:35:35.004Z,1.53
2019-05-13T13:38:42.690Z,1.30
2019-05-13T13:41:45.296Z,1.50
2019-05-13T13:44:53.465Z,1.10
2019-05-13T13:48:03.094Z,1.40
2019-05-13T13:51:04.016Z,1.17
2019-05-13T13:54:05.351Z,1.40
2019-05-13T13:57:13.133Z,1.77
2019-05-13T14:00:31.722Z,1.40
2019-05-13T14:03:20.762Z,1.40
2019-05-13T14:06:33.329Z,1.60
2019-05-13T14:07:22.865Z,1.47
2019-05-13T14:09:29.896Z,1.50
2019-05-13T14:12:33.598Z,1.20
2019-05-13T14:15:37.292Z,1.30
2019-05-13T14:18:41.959Z,1.20
2019-05-13T14:21:45.954Z,1.50
2019-05-13T14:24:51.869Z,1.30
2019-05-13T14:27:55.089Z,1.07
2019-05-13T14:30:58.775Z,1.23
2019-05-13T14:34:03.711Z,1.20
2019-05-13T14:37:08.106Z,1.20
2019-05-13T14:40:13.219Z,1.20
2019-05-13T14:43:16.930Z,1.40
2019-05-13T14:46:27.353Z,1.63
2019-05-13T14:49:26.551Z,1.30
2019-05-13T14:52:32.336Z,1.40
2019-05-13T14:55:35.675Z,1.50
2019-05-13T14:58:41.869Z,1.20
2019-05-13T15:01:45.110Z,1.40
2019-05-13T15:04:48.821Z,1.43
2019-05-13T15:07:52.979Z,1.30
2019-05-13T15:10:56.733Z,1.50
2019-05-13T15:14:02.402Z,1.13
2019-05-13T15:17:07.555Z,1.40
2019-05-13T15:20:12.725Z,1.60
2019-05-13T15:23:16.430Z,1.23
2019-05-13T15:26:22.213Z,1.20
2019-05-13T15:29:25.592Z,1.20
2019-05-13T15:32:29.297Z,1.50
2019-05-13T15:35:33.011Z,1.30
2019-05-13T15:38:36.713Z,1.47
2019-05-13T15:41:41.784Z,1.30
2019-05-13T15:44:46.041Z,1.50
2019-05-13T15:47:51.611Z,1.53
2019-05-13T15:50:55.186Z,1.43
2019-05-13T15:54:02.241Z,1.20
2019-05-13T15:57:04.739Z,1.33
2019-05-13T16:00:08.905Z,1.40
2019-05-13T16:03:12.904Z,1.13
2019-05-13T16:06:16.979Z,1.13
2019-05-13T16:09:20.681Z,1.30
2019-05-13T16:12:24.371Z,1.30
2019-05-13T16:15:28.694Z,1.40
2019-05-13T16:18:32.415Z,1.70
2019-05-13T16:21:36.123Z,1.33
2019-05-13T16:24:41.489Z,1.50
2019-05-13T16:27:45.731Z,1.40
2019-05-13T16:30:51.620Z,1.60
2019-05-13T16:33:55.222Z,1.30
2019-05-13T16:36:58.910Z,1.43
2019-05-13T16:40:02.624Z,1.70
2019-05-13T16:43:06.323Z,1.30
2019-05-13T16:46:12.174Z,1.50
2019-05-13T16:49:15.767Z,1.20
2019-05-13T16:52:21.887Z,1.23
2019-05-13T16:55:25.675Z,1.27
2019-05-13T16:58:32.169Z,1.27
2019-05-13T17:01:35.423Z,1.30
2019-05-13T17:04:41.318Z,1.47
2019-05-13T17:07:44.566Z,1.13
2019-05-13T17:10:48.265Z,1.20
2019-05-13T17:13:51.979Z,1.27
2019-05-13T17:16:56.336Z,1.33
2019-05-13T17:20:02.221Z,1.40
2019-05-13T17:23:05.471Z,1.27
2019-05-13T17:26:11.455Z,1.50
2019-05-13T17:29:14.893Z,1.53
2019-05-13T17:32:18.604Z,1.10
2019-05-13T17:35:22.442Z,1.40
2019-05-13T17:38:26.145Z,1.30
2019-05-13T17:41:31.928Z,1.40
2019-05-13T17:44:35.592Z,1.20
2019-05-13T17:47:41.736Z,1.27
2019-05-13T17:50:45.305Z,1.40
2019-05-13T17:53:49.008Z,1.27
2019-05-13T17:56:52.710Z,1.00
2019-05-13T17:59:56.411Z,1.40
2019-05-13T18:03:01.916Z,1.20
2019-05-13T18:06:05.774Z,1.30
2019-05-13T18:09:11.747Z,1.03
2019-05-13T18:12:15.159Z,1.57
2019-05-13T18:15:18.926Z,1.40
2019-05-13T18:18:22.621Z,1.10
2019-05-13T18:21:26.312Z,1.07
2019-05-13T18:24:32.077Z,1.20
2019-05-13T18:27:35.547Z,1.20
2019-05-13T18:30:41.030Z,0.90
2019-05-13T18:33:44.852Z,1.20
2019-05-13T18:36:48.541Z,1.03
2019-05-13T18:39:52.592Z,1.10
2019-05-13T18:42:56.284Z,1.17
2019-05-13T18:46:02.030Z,1.37
2019-05-13T18:49:05.446Z,1.20
2019-05-13T18:52:11.648Z,1.50
2019-05-13T18:55:15.252Z,1.40
2019-05-13T18:58:19.255Z,1.60
2019-05-13T19:01:42.669Z,1.40
2019-05-13T19:05:03.683Z,1.50
2019-05-13T19:08:29.107Z,1.43
2019-05-13T19:11:44.945Z,1.40
2019-05-13T19:15:02.553Z,1.47
2019-05-13T19:18:15.929Z,1.30
2019-05-13T19:21:34.427Z,1.40
2019-05-13T19:25:02.624Z,1.53
2019-05-13T19:28:06.606Z,1.47
2019-05-13T19:31:11.558Z,1.10
2019-05-13T19:34:15.304Z,1.40
2019-05-13T19:37:18.992Z,1.70
2019-05-13T19:40:22.698Z,1.50
2019-05-13T19:43:26.391Z,1.53
2019-05-13T19:46:31.459Z,1.40
2019-05-13T19:49:37.261Z,1.50
2019-05-13T19:52:41.467Z,1.40
2019-05-13T19:55:45.298Z,1.53
2019-05-13T19:58:48.980Z,1.73
2019-05-13T20:01:52.683Z,1.40
2019-05-13T20:04:56.452Z,1.37
2019-05-13T20:08:00.775Z,1.50
2019-05-13T20:11:04.708Z,1.27
2019-05-13T20:14:08.408Z,1.50
2019-05-13T20:17:12.323Z,1.40
2019-05-13T20:20:16.707Z,1.43
2019-05-13T20:23:21.337Z,1.60
2019-05-13T20:26:25.318Z,1.57
2019-05-13T20:29:29.289Z,1.47
2019-05-13T20:32:33.008Z,1.40
2019-05-13T20:35:36.709Z,1.43
2019-05-13T20:38:40.406Z,1.27
2019-05-13T20:41:44.118Z,1.57
2019-05-13T20:44:48.133Z,1.67
2019-05-13T20:47:51.923Z,1.53
2019-05-13T20:50:55.795Z,1.60
2019-05-13T20:53:59.507Z,1.50
2019-05-13T20:57:03.213Z,1.73
2019-05-13T21:00:07.473Z,1.70
2019-05-13T21:03:11.745Z,1.70
2019-05-13T21:06:15.648Z,1.30
2019-05-13T21:09:19.355Z,1.53
2019-05-13T21:12:23.041Z,1.63
2019-05-13T21:15:26.851Z,1.50
2019-05-13T21:18:31.629Z,1.90
2019-05-13T21:21:35.807Z,1.60
2019-05-13T21:24:41.257Z,1.80
2019-05-13T21:27:45.430Z,1.70
2019-05-13T21:30:51.284Z,1.70
2019-05-13T21:33:54.534Z,1.73
2019-05-13T21:36:58.511Z,1.80
2019-05-13T21:40:02.208Z,1.70
2019-05-13T21:43:05.899Z,1.57
2019-05-13T21:46:11.890Z,1.70
2019-05-13T21:49:17.419Z,1.67
2019-05-13T21:52:23.540Z,2.03
2019-05-13T21:55:26.211Z,1.90
2019-05-13T21:58:31.243Z,1.70
2019-05-13T22:01:35.614Z,1.40
2019-05-13T22:04:41.260Z,1.83
2019-05-13T22:07:44.866Z,1.70
2019-05-13T22:10:48.574Z,1.70
2019-05-13T22:13:52.602Z,1.67
2019-05-13T22:16:56.584Z,1.67
2019-05-13T22:20:01.846Z,2.23
2019-05-13T22:23:06.051Z,2.20
2019-05-13T22:26:11.704Z,1.70
2019-05-13T22:29:15.183Z,1.90
2019-05-13T22:32:18.882Z,1.83
2019-05-13T22:35:22.575Z,2.00
2019-05-13T22:38:26.275Z,1.60
2019-05-13T22:41:31.296Z,2.07
2019-05-13T22:44:35.411Z,2.00
2019-05-13T22:47:41.524Z,2.50
2019-05-13T22:50:44.488Z,2.50
2019-05-13T22:53:48.172Z,2.27
2019-05-13T22:56:52.336Z,1.80
2019-05-13T22:59:56.131Z,2.00
2019-05-13T23:03:01.642Z,2.17
2019-05-13T23:06:05.278Z,2.00
2019-05-13T23:09:08.976Z,2.50
2019-05-13T23:12:12.650Z,2.50
2019-05-13T23:15:16.950Z,1.90
2019-05-13T23:18:22.232Z,2.17
2019-05-13T23:21:25.963Z,2.10
2019-05-13T23:24:31.133Z,1.90
2019-05-13T23:27:35.115Z,2.30
2019-05-13T23:30:38.808Z,2.70
2019-05-13T23:33:42.479Z,2.00
2019-05-13T23:36:46.515Z,2.30
2019-05-13T23:39:52.018Z,2.10
2019-05-13T23:42:55.601Z,1.67
2019-05-13T23:46:01.182Z,1.93
2019-05-13T23:49:04.701Z,2.23
2019-05-13T23:52:08.421Z,2.40
2019-05-13T23:55:12.349Z,2.37
2019-05-13T23:58:16.330Z,2.30
